Time;durP1;ratioP1;P1;durP2;ratioP2;P2;SDS_P1;SDS_P2;PMS_P1;PMS_P2;Temp;Humidity;BMP_temperature;BMP_pressure;BME280_temperature;BME280_humidity;BME280_pressure;Samples;Min_cycle;Max_cycle;Signal;HPM_P1;HPM_P2
2022/02/24 00:00:54;;;;;;;2.30;2.00;;;3.70;98.00;;;;;;5114897;28;20540;-67
2022/02/24 00:03:22;;;;;;;1.80;1.20;;;3.50;98.00;;;;;;5114876;28;20532;-68
2022/02/24 00:05:50;;;;;;;1.20;1.10;;;3.70;98.00;;;;;;5114830;28;20547;-68
2022/02/24 00:08:18;;;;;;;1.50;1.33;;;3.70;98.00;;;;;;5114687;28;20530;-68
2022/02/24 00:10:45;;;;;;;1.20;1.00;;;3.60;98.00;;;;;;5114819;28;20453;-68
2022/02/24 00:13:16;;;;;;;2.23;1.40;;;3.60;98.00;;;;;;5114796;28;20996;-68
2022/02/24 00:15:45;;;;;;;2.70;1.50;;;3.80;98.00;;;;;;5114666;28;20521;-67
2022/02/24 00:18:12;;;;;;;1.87;1.53;;;3.90;98.00;;;;;;5114701;28;20879;-68
2022/02/24 00:20:40;;;;;;;1.97;1.37;;;4.00;98.00;;;;;;5114649;28;20465;-69
2022/02/24 00:23:07;;;;;;;1.40;1.30;;;3.90;98.00;;;;;;5114750;28;20781;-67
2022/02/24 00:25:34;;;;;;;2.13;1.20;;;3.80;98.00;;;;;;5114707;28;20484;-68
2022/02/24 00:28:01;;;;;;;1.60;1.50;;;3.80;98.00;;;;;;5114703;28;20545;-68
2022/02/24 00:30:28;;;;;;;1.40;1.33;;;3.70;98.00;;;;;;5114341;28;20961;-68
2022/02/24 00:32:56;;;;;;;4.20;1.70;;;3.70;98.00;;;;;;5113135;28;20540;-68
2022/02/24 00:35:24;;;;;;;1.20;1.10;;;3.60;98.00;;;;;;5114123;28;20456;-68
2022/02/24 00:37:51;;;;;;;2.07;1.67;;;3.70;98.00;;;;;;5114191;28;20541;-68
2022/02/24 00:40:18;;;;;;;5.53;1.93;;;3.80;98.00;;;;;;5114057;28;20461;-68
2022/02/24 00:42:45;;;;;;;1.67;1.53;;;3.60;98.00;;;;;;5114107;28;20544;-68
2022/02/24 00:45:12;;;;;;;1.83;1.73;;;3.60;98.00;;;;;;5113984;28;20462;-68
2022/02/24 00:47:40;;;;;;;1.50;1.20;;;3.60;98.00;;;;;;5113902;28;20493;-68
2022/02/24 00:50:09;;;;;;;2.63;1.53;;;3.80;98.00;;;;;;5113926;28;20516;-67
2022/02/24 00:52:36;;;;;;;2.43;1.60;;;3.80;98.00;;;;;;5113929;28;20483;-68
2022/02/24 00:55:04;;;;;;;6.70;2.60;;;3.90;98.00;;;;;;5113792;28;20483;-67
2022/02/24 00:57:31;;;;;;;1.30;1.17;;;4.00;98.00;;;;;;5113680;28;20558;-67
2022/02/24 00:59:58;;;;;;;1.53;1.33;;;4.00;98.00;;;;;;5113450;28;20544;-67
2022/02/24 01:02:25;;;;;;;1.30;1.20;;;3.80;98.00;;;;;;5113856;28;20526;-68
2022/02/24 01:04:52;;;;;;;1.30;1.30;;;3.90;98.00;;;;;;5112693;28;20486;-68
2022/02/24 01:07:21;;;;;;;1.50;1.47;;;3.90;98.00;;;;;;5113884;28;20491;-67
2022/02/24 01:09:48;;;;;;;1.40;1.30;;;4.20;98.00;;;;;;5113069;28;21034;-68
2022/02/24 01:12:16;;;;;;;1.53;1.40;;;4.40;98.00;;;;;;5113886;28;20846;-68
2022/02/24 01:14:43;;;;;;;1.20;1.10;;;4.60;98.00;;;;;;5113784;28;21002;-67
2022/02/24 01:17:10;;;;;;;1.30;1.20;;;4.40;98.00;;;;;;5113796;28;20459;-68
2022/02/24 01:19:37;;;;;;;2.00;1.90;;;4.40;98.00;;;;;;5113496;28;20853;-67
2022/02/24 01:22:04;;;;;;;2.60;1.63;;;4.50;98.00;;;;;;5113384;28;20889;-67
2022/02/24 01:24:32;;;;;;;1.30;1.13;;;4.60;98.00;;;;;;5113231;28;20456;-67
2022/02/24 01:27:00;;;;;;;1.40;1.20;;;4.50;98.00;;;;;;5113250;28;20480;-68
2022/02/24 01:29:27;;;;;;;3.20;1.50;;;4.30;98.00;;;;;;5112973;28;20565;-68
2022/02/24 01:31:53;;;;;;;1.77;1.60;;;4.30;98.00;;;;;;5113097;28;20447;-68
2022/02/24 01:34:20;;;;;;;1.20;1.20;;;4.30;98.00;;;;;;5112930;28;20490;-68
2022/02/24 01:36:48;;;;;;;1.73;1.40;;;4.30;98.00;;;;;;5113066;28;20538;-67
2022/02/24 01:39:15;;;;;;;2.07;1.97;;;4.20;98.00;;;;;;5112948;28;20502;-67
2022/02/24 01:41:47;;;;;;;1.57;1.47;;;4.10;98.00;;;;;;5112993;28;20521;-67
2022/02/24 01:44:15;;;;;;;1.40;1.37;;;4.30;98.00;;;;;;5112749;28;20544;-68
2022/02/24 01:46:43;;;;;;;1.97;1.67;;;4.60;98.00;;;;;;5112853;28;20495;-68
2022/02/24 01:49:11;;;;;;;1.20;1.00;;;4.60;98.00;;;;;;5112789;28;20507;-68
2022/02/24 01:51:39;;;;;;;3.23;3.00;;;4.60;98.00;;;;;;5112814;28;20452;-67
2022/02/24 01:54:07;;;;;;;1.20;1.10;;;4.70;98.00;;;;;;5112860;28;20535;-67
2022/02/24 01:56:34;;;;;;;1.30;1.30;;;4.70;98.00;;;;;;5112659;28;20921;-67
2022/02/24 01:59:03;;;;;;;1.40;1.30;;;4.90;98.00;;;;;;5112847;28;20487;-67
2022/02/24 02:01:30;;;;;;;1.40;1.30;;;4.90;98.00;;;;;;5112791;28;20995;-67
2022/02/24 02:03:57;;;;;;;1.80;1.77;;;4.90;98.00;;;;;;5112854;28;20452;-67
2022/02/24 02:06:27;;;;;;;2.13;2.00;;;4.80;98.00;;;;;;5112793;28;20488;-67
2022/02/24 02:08:54;;;;;;;3.00;2.47;;;4.50;98.00;;;;;;5111766;28;20484;-67
2022/02/24 02:11:21;;;;;;;1.30;1.27;;;4.30;98.00;;;;;;5112560;28;20491;-67
2022/02/24 02:13:48;;;;;;;4.83;2.10;;;4.20;98.00;;;;;;5112379;28;20498;-67
2022/02/24 02:16:16;;;;;;;1.40;1.10;;;4.10;98.00;;;;;;5112551;28;20492;-68
2022/02/24 02:18:43;;;;;;;4.33;2.03;;;3.90;98.00;;;;;;5112147;28;20489;-67
2022/02/24 02:21:12;;;;;;;3.70;2.87;;;3.80;98.00;;;;;;5111148;28;20568;-67
2022/02/24 02:23:39;;;;;;;1.30;1.27;;;3.80;98.00;;;;;;5112132;28;20504;-67
2022/02/24 02:26:06;;;;;;;1.70;1.47;;;3.90;98.00;;;;;;5112323;28;20499;-68
2022/02/24 02:28:34;;;;;;;1.70;1.70;;;4.10;98.00;;;;;;5112059;28;20475;-68
2022/02/24 02:31:01;;;;;;;1.20;1.13;;;4.20;98.00;;;;;;5112166;28;20512;-68
2022/02/24 02:33:28;;;;;;;2.00;1.47;;;4.20;98.00;;;;;;5112200;28;20447;-67
2022/02/24 02:35:56;;;;;;;2.03;1.40;;;4.10;98.00;;;;;;5112032;28;20878;-67
2022/02/24 02:38:24;;;;;;;2.23;2.10;;;4.10;98.00;;;;;;5112153;28;20988;-68
2022/02/24 02:40:51;;;;;;;1.20;0.90;;;4.20;98.00;;;;;;5112085;28;20452;-67
2022/02/24 02:43:18;;;;;;;2.13;1.40;;;4.10;98.00;;;;;;5112083;28;20482;-68
2022/02/24 02:45:48;;;;;;;1.20;1.10;;;4.10;98.00;;;;;;5111951;28;20541;-67
2022/02/24 02:48:15;;;;;;;1.20;1.00;;;4.20;98.00;;;;;;5112115;28;20894;-67
2022/02/24 02:50:42;;;;;;;1.30;1.13;;;4.30;98.00;;;;;;5111852;28;21202;-68
2022/02/24 02:53:09;;;;;;;1.20;1.00;;;4.00;98.00;;;;;;5112148;28;20486;-68
2022/02/24 02:55:38;;;;;;;1.17;1.00;;;4.00;98.00;;;;;;5112790;28;21035;-67
2022/02/24 02:58:05;;;;;;;1.20;1.00;;;4.00;98.00;;;;;;5116324;28;20470;-67
2022/02/24 03:00:35;;;;;;;2.17;1.30;;;3.80;98.00;;;;;;5116307;28;20480;-67
2022/02/24 03:03:02;;;;;;;1.23;1.03;;;3.80;98.00;;;;;;5114699;28;20565;-67
2022/02/24 03:05:29;;;;;;;1.30;1.13;;;3.90;98.00;;;;;;5115680;28;20497;-67
2022/02/24 03:07:56;;;;;;;1.97;1.33;;;4.00;98.00;;;;;;5115594;28;20455;-68
2022/02/24 03:10:25;;;;;;;1.40;1.20;;;3.90;98.00;;;;;;5115175;28;20637;-68
2022/02/24 03:12:53;;;;;;;1.67;1.20;;;3.90;98.00;;;;;;5115242;28;20509;-66
2022/02/24 03:15:21;;;;;;;1.20;1.00;;;4.10;98.00;;;;;;5115534;28;20534;-66
2022/02/24 03:17:49;;;;;;;1.30;1.13;;;4.30;98.00;;;;;;5115838;28;20492;-66
2022/02/24 03:20:16;;;;;;;1.20;1.13;;;4.30;98.00;;;;;;5115865;28;20447;-68
2022/02/24 03:22:44;;;;;;;2.37;1.47;;;4.30;98.00;;;;;;5115843;28;20490;-68
2022/02/24 03:25:11;;;;;;;1.40;1.00;;;4.30;98.00;;;;;;5114723;28;20555;-67
2022/02/24 03:27:38;;;;;;;1.40;1.37;;;4.30;98.00;;;;;;5115657;28;20940;-68
2022/02/24 03:30:08;;;;;;;1.93;1.63;;;4.30;98.00;;;;;;5115698;28;20515;-67
2022/02/24 03:32:35;;;;;;;1.63;1.50;;;4.20;98.00;;;;;;5115541;28;21106;-67
2022/02/24 03:35:03;;;;;;;1.20;1.00;;;4.20;98.00;;;;;;5115520;28;20850;-67
2022/02/24 03:37:30;;;;;;;1.40;1.30;;;4.20;98.00;;;;;;5115435;28;20468;-67
2022/02/24 03:39:57;;;;;;;1.20;1.13;;;4.20;98.00;;;;;;5115394;28;20538;-67
2022/02/24 03:42:24;;;;;;;1.20;1.03;;;4.00;98.00;;;;;;5115395;28;20483;-67
2022/02/24 03:44:51;;;;;;;1.17;1.10;;;4.00;98.00;;;;;;5115384;28;20525;-67
2022/02/24 03:47:20;;;;;;;2.87;1.97;;;4.10;98.00;;;;;;5115348;28;20459;-67
2022/02/24 03:49:47;;;;;;;2.33;2.20;;;4.10;98.00;;;;;;5115229;28;20573;-67
2022/02/24 03:52:14;;;;;;;1.20;1.07;;;3.90;98.00;;;;;;5115061;28;20472;-67
2022/02/24 03:54:44;;;;;;;1.20;1.00;;;4.00;98.00;;;;;;5115078;28;20579;-67
2022/02/24 03:57:11;;;;;;;1.40;1.30;;;4.20;98.00;;;;;;5115171;28;20466;-67
2022/02/24 03:59:39;;;;;;;2.23;1.37;;;4.20;98.00;;;;;;5114738;28;20510;-67
2022/02/24 04:02:06;;;;;;;1.50;1.40;;;4.30;98.00;;;;;;5115151;28;20540;-68
2022/02/24 04:04:35;;;;;;;1.40;1.40;;;4.30;98.00;;;;;;5114645;28;20452;-67
2022/02/24 04:07:02;;;;;;;1.10;1.00;;;4.40;98.00;;;;;;5114728;28;20485;-67
2022/02/24 04:09:29;;;;;;;1.30;1.20;;;4.30;98.00;;;;;;5114651;28;20633;-67
2022/02/24 04:11:57;;;;;;;1.20;1.00;;;4.20;98.00;;;;;;5114753;28;20499;-67
2022/02/24 04:14:25;;;;;;;1.47;1.20;;;4.20;98.00;;;;;;5114717;28;20487;-68
2022/02/24 04:16:52;;;;;;;2.77;1.37;;;4.30;98.00;;;;;;5114694;28;20823;-67
2022/02/24 04:19:19;;;;;;;1.23;1.17;;;4.30;98.00;;;;;;5114541;28;20549;-67
2022/02/24 04:21:50;;;;;;;1.20;1.00;;;4.30;98.00;;;;;;5114814;28;20504;-67
2022/02/24 04:24:17;;;;;;;1.20;1.10;;;4.30;98.00;;;;;;5114544;28;20463;-67
2022/02/24 04:26:44;;;;;;;1.20;1.00;;;4.30;98.00;;;;;;5114536;27;20522;-68
2022/02/24 04:29:12;;;;;;;1.20;1.13;;;4.30;98.00;;;;;;5113294;28;20938;-67
2022/02/24 04:31:39;;;;;;;1.20;1.00;;;4.10;98.00;;;;;;5114351;28;20957;-67
2022/02/24 04:34:06;;;;;;;1.20;1.20;;;4.00;98.00;;;;;;5114245;28;20489;-67
2022/02/24 04:36:33;;;;;;;1.17;1.00;;;3.80;98.00;;;;;;5114290;28;20543;-67
2022/02/24 04:39:01;;;;;;;1.40;1.20;;;3.90;98.00;;;;;;5114426;28;20498;-67
2022/02/24 04:41:30;;;;;;;1.77;1.57;;;4.00;98.00;;;;;;5114350;28;20514;-67
2022/02/24 04:43:57;;;;;;;1.20;1.00;;;4.00;98.00;;;;;;5114357;28;20782;-67
2022/02/24 04:46:24;;;;;;;1.30;1.20;;;3.70;98.00;;;;;;5114439;28;20534;-67
2022/02/24 04:48:51;;;;;;;1.37;1.20;;;3.70;98.00;;;;;;5114067;28;20491;-67
2022/02/24 04:51:18;;;;;;;8.00;2.03;;;3.50;98.00;;;;;;5113930;28;20918;-67
2022/02/24 04:53:46;;;;;;;1.40;1.40;;;3.50;98.00;;;;;;5113886;28;20789;-67
2022/02/24 04:56:14;;;;;;;3.00;2.03;;;3.50;98.00;;;;;;5112509;28;20985;-67
2022/02/24 04:58:42;;;;;;;1.20;1.07;;;3.50;98.00;;;;;;5113823;28;20967;-67
2022/02/24 05:01:11;;;;;;;1.20;1.10;;;3.60;98.00;;;;;;5113873;28;20843;-67
2022/02/24 05:03:38;;;;;;;1.20;0.90;;;3.40;98.00;;;;;;5113669;28;20456;-67
2022/02/24 05:06:06;;;;;;;1.20;1.13;;;3.40;98.00;;;;;;5113642;28;20953;-67
2022/02/24 05:08:33;;;;;;;1.43;1.40;;;3.20;98.00;;;;;;5113327;28;20447;-67
2022/02/24 05:11:00;;;;;;;1.20;1.10;;;3.10;98.00;;;;;;5113592;28;20540;-67
2022/02/24 05:13:28;;;;;;;3.30;2.70;;;3.20;98.00;;;;;;5113691;28;20488;-67
2022/02/24 05:15:55;;;;;;;1.60;1.20;;;3.10;98.00;;;;;;5113507;28;20489;-67
2022/02/24 05:18:22;;;;;;;1.20;1.20;;;3.10;98.00;;;;;;5112821;28;20472;-67
2022/02/24 05:20:50;;;;;;;1.20;1.10;;;3.20;98.00;;;;;;5113405;28;21002;-67
2022/02/24 05:23:18;;;;;;;4.70;1.57;;;3.30;98.00;;;;;;5113387;28;21043;-67
2022/02/24 05:25:45;;;;;;;1.37;1.30;;;3.30;98.00;;;;;;5113422;28;21047;-67
2022/02/24 05:28:13;;;;;;;1.77;1.60;;;3.20;98.00;;;;;;5112305;28;20452;-68
2022/02/24 05:30:43;;;;;;;1.50;1.30;;;3.20;98.00;;;;;;5113363;28;20821;-66
2022/02/24 05:33:10;;;;;;;1.67;1.20;;;3.20;98.00;;;;;;5113448;28;20538;-67
2022/02/24 05:35:40;;;;;;;2.30;1.50;;;3.30;98.00;;;;;;5113320;28;20483;-67
2022/02/24 05:38:07;;;;;;;1.30;1.30;;;3.20;98.00;;;;;;5113433;28;20539;-67
2022/02/24 05:40:34;;;;;;;1.30;1.30;;;3.20;98.00;;;;;;5112827;28;20495;-67
2022/02/24 05:43:02;;;;;;;1.20;1.10;;;3.40;98.00;;;;;;5113033;28;20487;-68
2022/02/24 05:45:29;;;;;;;1.40;1.13;;;3.40;98.00;;;;;;5112745;28;20541;-67
2022/02/24 05:47:57;;;;;;;1.40;1.27;;;3.20;98.00;;;;;;5112975;28;20458;-67
2022/02/24 05:50:24;;;;;;;2.80;1.83;;;3.10;98.00;;;;;;5112653;28;20515;-68
2022/02/24 05:52:52;;;;;;;1.20;1.03;;;3.00;98.00;;;;;;5112722;28;20876;-67
2022/02/24 05:55:19;;;;;;;1.20;1.20;;;3.10;98.00;;;;;;5111352;28;20824;-67
2022/02/24 05:57:51;;;;;;;3.00;1.53;;;3.20;98.00;;;;;;5112554;28;20495;-67
2022/02/24 06:00:18;;;;;;;1.20;1.10;;;3.00;98.00;;;;;;5112648;28;20452;-68
2022/02/24 06:02:45;;;;;;;1.40;1.10;;;2.90;98.00;;;;;;5112721;28;20500;-68
2022/02/24 06:05:14;;;;;;;1.20;1.00;;;3.00;98.00;;;;;;5112552;28;20542;-67
2022/02/24 06:07:42;;;;;;;1.40;1.20;;;2.90;98.00;;;;;;5112520;28;20463;-67
2022/02/24 06:10:11;;;;;;;3.73;1.57;;;2.70;98.00;;;;;;5112586;28;20848;-67
2022/02/24 06:12:39;;;;;;;1.20;0.97;;;2.70;98.00;;;;;;5112406;28;20527;-68
2022/02/24 06:15:08;;;;;;;2.23;1.13;;;2.70;98.00;;;;;;5112377;28;20494;-67
2022/02/24 06:17:35;;;;;;;1.60;1.50;;;2.80;98.00;;;;;;5112538;28;20494;-67
2022/02/24 06:20:03;;;;;;;1.20;1.10;;;2.80;98.00;;;;;;5112567;28;20860;-66
2022/02/24 06:22:32;;;;;;;1.30;1.20;;;2.80;98.00;;;;;;5112484;28;20495;-67
2022/02/24 06:24:59;;;;;;;3.57;1.87;;;2.90;98.00;;;;;;5112594;28;20455;-67
2022/02/24 06:27:26;;;;;;;1.40;1.33;;;3.10;98.00;;;;;;5112482;28;20539;-67
2022/02/24 06:29:53;;;;;;;2.80;1.60;;;3.10;98.00;;;;;;5111589;28;20465;-67
2022/02/24 06:32:20;;;;;;;2.27;1.20;;;2.90;98.00;;;;;;5111939;28;20980;-67
2022/02/24 06:34:48;;;;;;;1.20;1.10;;;2.90;98.00;;;;;;5112269;28;20455;-67
2022/02/24 06:37:15;;;;;;;1.40;1.20;;;3.00;98.00;;;;;;5112013;28;20556;-67
2022/02/24 06:39:43;;;;;;;1.30;1.30;;;3.00;98.00;;;;;;5112117;28;20511;-67
2022/02/24 06:42:10;;;;;;;1.90;1.20;;;3.00;98.00;;;;;;5111965;28;20493;-67
2022/02/24 06:44:37;;;;;;;1.20;1.00;;;3.10;98.00;;;;;;5111907;28;21200;-67
2022/02/24 06:47:05;;;;;;;1.20;1.00;;;3.10;98.00;;;;;;5112065;28;20502;-67
2022/02/24 06:49:32;;;;;;;1.60;1.50;;;3.10;98.00;;;;;;5112003;28;20486;-67
2022/02/24 06:51:59;;;;;;;1.30;1.17;;;3.30;98.00;;;;;;5111892;28;20506;-67
2022/02/24 06:54:27;;;;;;;1.30;1.20;;;3.10;98.00;;;;;;5112052;28;20937;-67
2022/02/24 06:56:58;;;;;;;1.50;1.23;;;3.00;98.00;;;;;;5111796;28;21131;-67
2022/02/24 06:59:27;;;;;;;1.77;1.77;;;3.00;98.00;;;;;;5111888;28;20508;-67
2022/02/24 07:01:54;;;;;;;1.60;1.43;;;3.00;98.00;;;;;;5111891;28;20987;-67
2022/02/24 07:04:22;;;;;;;2.13;1.50;;;3.00;98.00;;;;;;5111922;28;20504;-67
2022/02/24 07:06:50;;;;;;;1.87;1.10;;;3.00;98.00;;;;;;5111954;28;20486;-68
2022/02/24 07:09:17;;;;;;;4.23;2.80;;;3.20;98.00;;;;;;5111911;28;20456;-67
2022/02/24 07:11:44;;;;;;;1.40;1.27;;;3.20;98.00;;;;;;5111964;28;20523;-68
2022/02/24 07:14:20;;;;;;;1.20;1.10;;;3.20;98.00;;;;;;5111846;28;20507;-67
2022/02/24 07:16:48;;;;;;;1.20;1.00;;;3.20;98.00;;;;;;5112135;28;20491;-67
2022/02/24 07:19:15;;;;;;;1.20;1.10;;;3.30;98.00;;;;;;5111940;28;20520;-67
2022/02/24 07:21:42;;;;;;;2.40;1.20;;;3.40;98.00;;;;;;5111664;28;20490;-67
2022/02/24 07:24:10;;;;;;;1.23;1.23;;;3.60;98.00;;;;;;5111671;28;20985;-67
2022/02/24 07:26:37;;;;;;;1.80;1.63;;;3.60;98.00;;;;;;5111598;28;20880;-67
2022/02/24 07:29:08;;;;;;;1.20;1.00;;;3.80;98.00;;;;;;5111406;28;20454;-67
2022/02/24 07:31:39;;;;;;;1.77;1.67;;;4.00;98.00;;;;;;5111469;28;20485;-68
2022/02/24 07:34:06;;;;;;;2.20;1.83;;;4.00;98.00;;;;;;5111441;28;20616;-67
2022/02/24 07:36:34;;;;;;;4.37;2.30;;;4.00;98.00;;;;;;5111675;28;20580;-67
2022/02/24 07:39:04;;;;;;;1.30;1.10;;;4.00;98.00;;;;;;5110238;28;20521;-68
2022/02/24 07:41:31;;;;;;;1.20;1.10;;;4.00;98.00;;;;;;5112253;28;20481;-67
2022/02/24 07:43:57;;;;;;;2.43;1.37;;;4.00;98.00;;;;;;5115255;28;20862;-67
2022/02/24 07:46:26;;;;;;;1.73;1.50;;;4.00;98.00;;;;;;5115281;28;20604;-67
2022/02/24 07:48:55;;;;;;;6.03;3.93;;;4.00;98.00;;;;;;5115468;28;20819;-67
2022/02/24 07:51:22;;;;;;;1.83;1.67;;;4.10;98.00;;;;;;5115125;28;20489;-67
2022/02/24 07:53:49;;;;;;;2.70;1.50;;;4.40;98.00;;;;;;5115344;27;20460;-67
2022/02/24 07:56:18;;;;;;;1.40;1.10;;;4.40;98.00;;;;;;5115044;28;20459;-68
2022/02/24 07:58:45;;;;;;;1.20;1.20;;;4.40;98.00;;;;;;5115164;28;20479;-66
2022/02/24 08:01:12;;;;;;;1.20;1.20;;;4.60;98.00;;;;;;5115024;28;20510;-66
2022/02/24 08:03:39;;;;;;;1.20;1.20;;;4.80;98.00;;;;;;5115057;28;21145;-67
2022/02/24 08:06:07;;;;;;;2.43;1.40;;;4.60;98.00;;;;;;5115038;28;20545;-67
2022/02/24 08:08:35;;;;;;;1.60;1.53;;;4.60;98.00;;;;;;5115215;28;20459;-68
2022/02/24 08:11:02;;;;;;;1.80;1.70;;;4.70;98.00;;;;;;5113585;28;20885;-67
2022/02/24 08:13:29;;;;;;;1.30;1.20;;;4.80;98.00;;;;;;5114720;28;20451;-67
2022/02/24 08:15:56;;;;;;;1.50;1.20;;;4.80;98.00;;;;;;5114525;28;20496;-68
2022/02/24 08:18:23;;;;;;;2.37;2.03;;;4.70;98.00;;;;;;5113538;28;20484;-67
2022/02/24 08:20:50;;;;;;;1.40;1.40;;;4.80;98.00;;;;;;5114461;28;20887;-67
2022/02/24 08:23:20;;;;;;;1.20;1.17;;;4.90;98.00;;;;;;5113361;28;20864;-69
2022/02/24 08:25:47;;;;;;;1.40;1.40;;;5.10;98.00;;;;;;5105703;28;20517;-67
2022/02/24 08:28:14;;;;;;;1.23;1.17;;;5.30;98.00;;;;;;5094889;28;20511;-67
2022/02/24 08:30:42;;;;;;;1.50;1.43;;;5.40;98.00;;;;;;5100776;28;21047;-67
2022/02/24 08:33:09;;;;;;;1.40;1.33;;;5.50;98.00;;;;;;5099512;28;20535;-67
2022/02/24 08:35:36;;;;;;;1.33;1.20;;;5.50;98.00;;;;;;5100817;28;20500;-67
2022/02/24 08:38:05;;;;;;;5.20;1.30;;;5.60;98.00;;;;;;5103868;28;20448;-69
2022/02/24 08:40:34;;;;;;;2.03;1.93;;;5.60;98.00;;;;;;5099117;28;20547;-67
2022/02/24 08:43:01;;;;;;;2.40;1.67;;;5.70;98.00;;;;;;5103737;28;20896;-68
2022/02/24 08:45:30;;;;;;;1.83;1.73;;;5.70;98.00;;;;;;5099023;28;20448;-67
2022/02/24 08:47:57;;;;;;;1.20;1.17;;;5.80;98.00;;;;;;5109009;28;20457;-68
2022/02/24 08:50:28;;;;;;;18.93;2.27;;;5.90;98.00;;;;;;5105178;28;20495;-67
2022/02/24 08:52:59;;;;;;;1.80;1.50;;;6.20;98.00;;;;;;5098015;28;20993;-68
2022/02/24 08:55:30;;;;;;;1.93;1.53;;;6.20;98.00;;;;;;5103044;28;20514;-69
2022/02/24 08:57:59;;;;;;;1.67;1.50;;;6.40;98.00;;;;;;5100168;28;20552;-67
2022/02/24 09:00:26;;;;;;;1.20;1.00;;;6.50;98.00;;;;;;5102699;28;20584;-69
2022/02/24 09:02:53;;;;;;;3.60;1.93;;;6.70;98.00;;;;;;5108889;28;20915;-68
2022/02/24 09:05:20;;;;;;;1.30;1.20;;;6.80;98.00;;;;;;5108179;28;20582;-68
2022/02/24 09:07:48;;;;;;;1.30;1.20;;;7.00;98.00;;;;;;5102304;28;20546;-67
2022/02/24 09:10:20;;;;;;;2.17;1.83;;;7.10;98.00;;;;;;5108049;28;21015;-67
2022/02/24 09:12:47;;;;;;;1.77;1.53;;;7.10;98.00;;;;;;5107275;28;20579;-67
2022/02/24 09:15:15;;;;;;;1.50;1.20;;;7.20;98.00;;;;;;5100668;28;20922;-68
2022/02/24 09:17:42;;;;;;;1.73;1.63;;;7.20;98.00;;;;;;5113189;28;20449;-69
2022/02/24 09:20:10;;;;;;;2.33;1.60;;;7.40;98.00;;;;;;5113404;28;20542;-68
2022/02/24 09:22:37;;;;;;;1.50;1.20;;;7.60;98.00;;;;;;5113148;28;20851;-69
2022/02/24 09:25:05;;;;;;;1.40;1.27;;;7.80;98.00;;;;;;5113232;28;20856;-69
2022/02/24 09:27:32;;;;;;;1.93;1.77;;;8.10;98.00;;;;;;5113195;28;20503;-69
2022/02/24 09:29:59;;;;;;;1.20;1.20;;;8.30;98.00;;;;;;5113180;28;20457;-69
2022/02/24 09:32:27;;;;;;;4.13;2.47;;;8.50;98.00;;;;;;5111820;28;20823;-69
2022/02/24 09:34:57;;;;;;;3.97;1.87;;;8.70;98.00;;;;;;5113085;28;21201;-69
2022/02/24 09:37:25;;;;;;;1.70;1.60;;;9.00;98.00;;;;;;5113221;28;20784;-69
2022/02/24 09:39:53;;;;;;;3.20;1.63;;;9.20;98.00;;;;;;5111940;28;20816;-69
2022/02/24 09:42:20;;;;;;;2.50;1.30;;;9.40;98.00;;;;;;5113131;28;20535;-69
2022/02/24 09:44:48;;;;;;;1.70;1.40;;;9.60;98.00;;;;;;5112948;28;20552;-69
2022/02/24 09:47:17;;;;;;;2.27;1.40;;;9.80;98.00;;;;;;5113031;28;20465;-69
2022/02/24 09:49:47;;;;;;;1.90;1.63;;;10.00;98.00;;;;;;5112830;28;20516;-69
2022/02/24 09:52:17;;;;;;;1.30;1.20;;;10.20;98.00;;;;;;5112908;28;20989;-69
2022/02/24 09:54:44;;;;;;;3.27;2.10;;;10.40;98.00;;;;;;5112819;28;20465;-69
2022/02/24 09:57:12;;;;;;;1.47;1.43;;;10.60;98.00;;;;;;5112925;28;20988;-69
2022/02/24 09:59:38;;;;;;;1.40;1.40;;;10.80;98.00;;;;;;5112695;28;20512;-69
2022/02/24 10:02:06;;;;;;;1.63;1.20;;;11.10;98.00;;;;;;5112775;28;20528;-69
2022/02/24 10:04:36;;;;;;;3.00;2.77;;;;;;;;;;5112399;28;20551;-69
2022/02/24 10:07:05;;;;;;;1.30;1.30;;;11.90;98.00;;;;;;5112558;28;20504;-69
2022/02/24 10:09:34;;;;;;;1.60;1.20;;;12.30;98.00;;;;;;5112326;28;20482;-69
2022/02/24 10:12:06;;;;;;;2.90;1.70;;;12.60;98.00;;;;;;5112395;28;20478;-69
2022/02/24 10:14:34;;;;;;;1.20;1.00;;;12.80;97.30;;;;;;5111202;28;20450;-69
2022/02/24 10:17:04;;;;;;;1.20;1.00;;;12.80;96.80;;;;;;5112599;28;20467;-69
2022/02/24 10:19:36;;;;;;;1.20;1.10;;;12.80;97.40;;;;;;5112290;28;20458;-69
2022/02/24 10:22:12;;;;;;;1.20;1.20;;;12.90;97.00;;;;;;5112608;28;20488;-69
2022/02/24 10:24:42;;;;;;;1.20;1.20;;;12.90;96.70;;;;;;5112329;28;20475;-69
2022/02/24 10:27:21;;;;;;;1.43;1.30;;;13.10;95.70;;;;;;5112509;28;20510;-69
2022/02/24 10:30:01;;;;;;;1.57;1.20;;;13.30;96.10;;;;;;5112293;28;20480;-69
2022/02/24 10:32:35;;;;;;;1.20;1.10;;;13.40;94.20;;;;;;5112229;28;20558;-69
2022/02/24 10:35:27;;;;;;;1.67;1.50;;;13.60;95.30;;;;;;5112191;28;20959;-69
2022/02/24 10:38:05;;;;;;;1.20;1.10;;;13.80;94.50;;;;;;5112354;28;20873;-69
2022/02/24 10:40:34;;;;;;;1.57;1.10;;;14.00;94.20;;;;;;5112038;28;20559;-69
2022/02/24 10:43:13;;;;;;;1.20;1.00;;;14.00;93.90;;;;;;5111539;28;20546;-69
2022/02/24 10:45:42;;;;;;;1.20;1.10;;;14.20;93.30;;;;;;5111286;28;20451;-69
2022/02/24 10:48:09;;;;;;;1.30;1.30;;;14.30;94.10;;;;;;5111538;28;20462;-69
2022/02/24 10:50:53;;;;;;;1.57;1.30;;;14.40;93.20;;;;;;5111474;28;20503;-69
2022/02/24 10:53:23;;;;;;;1.30;1.13;;;14.40;92.70;;;;;;5111429;28;20537;-69
2022/02/24 10:56:05;;;;;;;1.30;1.23;;;14.40;92.90;;;;;;5111144;28;20511;-69
2022/02/24 10:58:35;;;;;;;1.20;1.10;;;14.50;91.80;;;;;;5111192;28;20487;-69
2022/02/24 11:01:13;;;;;;;1.20;1.10;;;14.60;92.00;;;;;;5111222;28;20882;-69
2022/02/24 11:03:42;;;;;;;1.20;1.10;;;14.90;93.60;;;;;;5111106;28;20511;-69
2022/02/24 11:06:13;;;;;;;1.20;1.00;;;15.00;91.40;;;;;;5111207;28;20529;-69
2022/02/24 11:08:43;;;;;;;1.87;1.40;;;15.00;90.80;;;;;;5111213;28;20541;-69
2022/02/24 11:11:12;;;;;;;1.53;1.23;;;15.00;91.70;;;;;;5111228;28;20444;-68
2022/02/24 11:13:39;;;;;;;1.83;1.40;;;15.10;89.90;;;;;;5109824;28;20615;-69
2022/02/24 11:16:06;;;;;;;1.30;1.30;;;15.20;90.80;;;;;;5110897;28;20487;-69
2022/02/24 11:18:33;;;;;;;1.20;1.10;;;15.40;89.70;;;;;;5115375;28;20883;-69
2022/02/24 11:21:00;;;;;;;1.30;1.17;;;15.50;90.50;;;;;;5115205;28;20490;-69
2022/02/24 11:23:29;;;;;;;1.83;1.20;;;15.60;89.60;;;;;;5114983;28;20823;-70
2022/02/24 11:26:07;;;;;;;1.30;1.10;;;15.50;88.90;;;;;;5114787;28;20498;-71
2022/02/24 11:28:41;;;;;;;1.20;1.10;;;15.50;90.40;;;;;;5114630;28;20456;-71
2022/02/24 11:31:24;;;;;;;2.00;1.40;;;15.60;89.80;;;;;;5114933;28;20908;-70
2022/02/24 11:33:52;;;;;;;1.20;1.10;;;15.90;88.30;;;;;;5114105;28;20522;-70
2022/02/24 11:36:20;;;;;;;1.20;1.10;;;15.60;88.20;;;;;;5114655;28;20534;-70
2022/02/24 11:39:08;;;;;;;1.30;1.23;;;15.50;90.30;;;;;;5114522;28;20480;-70
2022/02/24 11:41:51;;;;;;;1.20;1.00;;;15.50;90.70;;;;;;5114839;28;20801;-71
2022/02/24 11:44:34;;;;;;;1.33;1.23;;;15.60;90.00;;;;;;5114293;28;20456;-70
2022/02/24 11:47:05;;;;;;;1.30;1.20;;;15.40;89.40;;;;;;5114348;28;20484;-71
2022/02/24 11:50:10;;;;;;;1.73;1.47;;;15.40;91.00;;;;;;5114386;28;20509;-71
2022/02/24 11:52:49;;;;;;;1.40;1.40;;;15.50;91.00;;;;;;5114368;28;20506;-70
2022/02/24 11:55:49;;;;;;;1.20;1.10;;;15.80;88.10;;;;;;5114043;28;20465;-70
2022/02/24 11:58:47;;;;;;;1.40;1.30;;;15.60;87.80;;;;;;5114358;28;20888;-71
2022/02/24 12:01:23;;;;;;;1.20;1.10;;;15.50;87.50;;;;;;5114137;28;20494;-70
2022/02/24 12:04:02;;;;;;;2.70;1.47;;;15.40;87.90;;;;;;5114391;28;20452;-70
2022/02/24 12:06:42;;;;;;;1.20;1.20;;;15.20;86.20;;;;;;5111976;28;20732;-70
2022/02/24 12:09:16;;;;;;;1.93;1.57;;;15.40;86.50;;;;;;5114095;28;20537;-70
2022/02/24 12:11:48;;;;;;;1.50;1.30;;;15.50;86.40;;;;;;5112341;28;20488;-69
2022/02/24 12:14:52;;;;;;;1.40;1.20;;;15.60;86.00;;;;;;5114150;28;20510;-70
2022/02/24 12:17:28;;;;;;;1.30;1.20;;;15.70;86.20;;;;;;5114056;28;20797;-70
2022/02/24 12:19:59;;;;;;;1.30;1.10;;;15.70;86.70;;;;;;5113807;28;20615;-70
2022/02/24 12:22:36;;;;;;;1.20;1.10;;;15.80;85.40;;;;;;5112974;28;20873;-70
2022/02/24 12:25:13;;;;;;;1.43;1.30;;;15.50;83.70;;;;;;5113764;28;20546;-70
2022/02/24 12:27:42;;;;;;;1.67;1.27;;;15.40;85.10;;;;;;5113680;28;20490;-70
2022/02/24 12:30:30;;;;;;;1.30;1.17;;;15.30;84.90;;;;;;5113731;28;20503;-70
2022/02/24 12:33:05;;;;;;;1.30;1.10;;;15.10;84.10;;;;;;5113899;28;20485;-70
2022/02/24 12:35:34;;;;;;;1.30;1.20;;;15.00;84.70;;;;;;5113615;28;20466;-70
2022/02/24 12:38:03;;;;;;;1.20;1.10;;;15.00;85.20;;;;;;5113643;28;21109;-71
2022/02/24 12:40:33;;;;;;;2.07;1.93;;;15.00;84.50;;;;;;5113448;28;20458;-70
2022/02/24 12:43:02;;;;;;;1.20;1.10;;;15.10;87.20;;;;;;5113619;28;20457;-70
2022/02/24 12:45:31;;;;;;;1.57;1.20;;;15.00;84.50;;;;;;5113405;28;20476;-70
2022/02/24 12:48:00;;;;;;;1.20;1.00;;;15.00;84.60;;;;;;5113446;28;20902;-70
2022/02/24 12:50:33;;;;;;;1.30;1.20;;;15.10;83.50;;;;;;5113195;28;20820;-70
2022/02/24 12:53:08;;;;;;;1.20;1.10;;;15.10;83.70;;;;;;5113407;28;20507;-70
2022/02/24 12:55:35;;;;;;;1.20;1.10;;;15.10;83.70;;;;;;5113172;28;20453;-71
2022/02/24 12:58:02;;;;;;;1.20;1.10;;;15.10;84.00;;;;;;5113170;28;20457;-71
2022/02/24 13:00:34;;;;;;;1.30;1.20;;;15.10;84.30;;;;;;5113034;28;20534;-71
2022/02/24 13:03:04;;;;;;;1.40;1.10;;;15.10;84.20;;;;;;5113433;28;20474;-70
2022/02/24 13:05:33;;;;;;;1.20;1.00;;;15.10;83.30;;;;;;5113192;28;20452;-70